SGEN/ENO METAR and TAF weather

Enter ICAO airport designator
Station Type Date Time Source
SGEN METAR 2019/02/22 21:00 UTC NOAA

SGEN 222100Z 02006KT 9999 SCT033 35/20 Q1008


Station Type Date Time Source
SGEN Decoded METAR 2019/02/22 21:00 UTC NOAA

Encarnacion, Paraguay (SGEN) 27-19S 055-50W 91M
Feb 22, 2019 - 04:00 PM EST / 2019.02.22 2100 UTC
Wind: from the NNE (020 degrees) at 7 MPH (6 KT):0
Visibility: greater than 7 mile(s):0
Sky conditions: partly cloudy
Temperature: 95 F (35 C)
Heat index: 99.5 F (37.5 C):1
Dew Point: 68 F (20 C)
Relative Humidity: 41%
Pressure (altimeter): 29.77 in. Hg (1008 hPa)
ob: SGEN 222100Z 02006KT 9999 SCT033 35/20 Q1008
cycle: 21

Station Type Date Time Source
SGEN TAF 2019/02/22 18:00 UTC NOAA

TAF SGEN 221612Z 2218/2318 05008KT 9999 FEW033 TX36/2219Z TN25/2309Z
BECMG 2219/2221 02010KT 9999 SCT033
BECMG 2300/2303 VRB04KT CAVOK


Example: see airport list